sensor_id;sensor_type;location;lat;lon;timestamp;P1;P2;P0
77320;PMS7003;66382;52.252;8.780;2023-02-11T00:00:11;65.25;53.75;32.00
77320;PMS7003;66382;52.252;8.780;2023-02-11T00:02:38;62.25;52.00;32.25
77320;PMS7003;66382;52.252;8.780;2023-02-11T00:05:04;65.25;54.00;34.00
77320;PMS7003;66382;52.252;8.780;2023-02-11T00:07:31;67.25;55.25;34.00
77320;PMS7003;66382;52.252;8.780;2023-02-11T00:09:58;63.50;52.75;34.50
77320;PMS7003;66382;52.252;8.780;2023-02-11T00:12:24;65.25;55.00;34.00
77320;PMS7003;66382;52.252;8.780;2023-02-11T00:14:50;65.25;53.25;34.25
77320;PMS7003;66382;52.252;8.780;2023-02-11T00:17:16;63.25;52.00;33.25
77320;PMS7003;66382;52.252;8.780;2023-02-11T00:19:42;72.50;57.25;34.25
77320;PMS7003;66382;52.252;8.780;2023-02-11T00:22:08;64.25;53.50;31.25
77320;PMS7003;66382;52.252;8.780;2023-02-11T00:24:34;68.50;55.25;33.25
77320;PMS7003;66382;52.252;8.780;2023-02-11T00:27:02;61.00;50.50;30.50
77320;PMS7003;66382;52.252;8.780;2023-02-11T00:29:28;63.25;52.75;33.00
77320;PMS7003;66382;52.252;8.780;2023-02-11T00:31:53;69.75;57.00;33.00
77320;PMS7003;66382;52.252;8.780;2023-02-11T00:34:19;63.75;52.75;33.00
77320;PMS7003;66382;52.252;8.780;2023-02-11T00:36:45;58.25;48.25;31.25
77320;PMS7003;66382;52.252;8.780;2023-02-11T00:39:10;67.75;54.75;33.00
77320;PMS7003;66382;52.252;8.780;2023-02-11T00:41:36;64.75;53.50;31.00
77320;PMS7003;66382;52.252;8.780;2023-02-11T00:44:03;66.50;55.25;33.50
77320;PMS7003;66382;52.252;8.780;2023-02-11T00:46:29;69.00;55.75;33.75
77320;PMS7003;66382;52.252;8.780;2023-02-11T00:48:55;63.75;52.75;33.50
77320;PMS7003;66382;52.252;8.780;2023-02-11T00:51:20;65.25;52.75;33.00
77320;PMS7003;66382;52.252;8.780;2023-02-11T00:53:46;63.75;53.00;33.00
77320;PMS7003;66382;52.252;8.780;2023-02-11T00:56:12;62.50;52.25;32.25
77320;PMS7003;66382;52.252;8.780;2023-02-11T00:58:38;59.50;49.50;34.00
77320;PMS7003;66382;52.252;8.780;2023-02-11T01:01:05;63.50;53.00;33.75
77320;PMS7003;66382;52.252;8.780;2023-02-11T01:03:31;65.25;53.50;33.25
77320;PMS7003;66382;52.252;8.780;2023-02-11T01:05:56;64.25;52.75;31.25
77320;PMS7003;66382;52.252;8.780;2023-02-11T01:08:22;64.25;52.75;33.75
77320;PMS7003;66382;52.252;8.780;2023-02-11T01:10:52;62.50;52.50;33.75
77320;PMS7003;66382;52.252;8.780;2023-02-11T01:13:19;64.50;51.25;31.50
77320;PMS7003;66382;52.252;8.780;2023-02-11T01:15:44;63.75;52.00;32.00
77320;PMS7003;66382;52.252;8.780;2023-02-11T01:18:11;62.50;51.75;33.00
77320;PMS7003;66382;52.252;8.780;2023-02-11T01:20:37;62.00;51.75;31.00
77320;PMS7003;66382;52.252;8.780;2023-02-11T01:23:03;65.75;54.50;32.75
77320;PMS7003;66382;52.252;8.780;2023-02-11T01:25:29;65.50;53.00;32.75
77320;PMS7003;66382;52.252;8.780;2023-02-11T01:27:54;64.50;53.50;32.00
77320;PMS7003;66382;52.252;8.780;2023-02-11T01:30:20;63.50;52.75;31.25
77320;PMS7003;66382;52.252;8.780;2023-02-11T01:32:46;65.50;54.00;34.00
77320;PMS7003;66382;52.252;8.780;2023-02-11T01:35:13;63.75;52.00;32.50
77320;PMS7003;66382;52.252;8.780;2023-02-11T01:37:38;62.75;52.00;31.50
77320;PMS7003;66382;52.252;8.780;2023-02-11T01:40:05;63.75;52.00;33.25
77320;PMS7003;66382;52.252;8.780;2023-02-11T01:42:35;63.75;52.75;33.50
77320;PMS7003;66382;52.252;8.780;2023-02-11T01:45:03;64.75;53.75;31.25
77320;PMS7003;66382;52.252;8.780;2023-02-11T01:48:01;67.25;54.25;34.00
77320;PMS7003;66382;52.252;8.780;2023-02-11T01:50:28;63.25;52.00;32.25
77320;PMS7003;66382;52.252;8.780;2023-02-11T01:52:55;63.75;52.50;32.75
77320;PMS7003;66382;52.252;8.780;2023-02-11T01:55:21;64.25;53.50;33.00
77320;PMS7003;66382;52.252;8.780;2023-02-11T01:57:48;62.25;52.00;32.25
77320;PMS7003;66382;52.252;8.780;2023-02-11T02:00:19;61.75;51.00;32.00
77320;PMS7003;66382;52.252;8.780;2023-02-11T02:02:49;64.75;54.00;32.00
77320;PMS7003;66382;52.252;8.780;2023-02-11T02:05:22;61.50;51.25;31.25
77320;PMS7003;66382;52.252;8.780;2023-02-11T02:07:55;68.00;54.25;33.25
77320;PMS7003;66382;52.252;8.780;2023-02-11T02:10:27;63.50;52.00;32.00
77320;PMS7003;66382;52.252;8.780;2023-02-11T02:12:54;59.50;50.00;31.25
77320;PMS7003;66382;52.252;8.780;2023-02-11T02:15:27;64.50;52.25;31.25
77320;PMS7003;66382;52.252;8.780;2023-02-11T02:24:15;66.00;54.00;34.00
77320;PMS7003;66382;52.252;8.780;2023-02-11T02:27:08;60.25;51.25;32.75
77320;PMS7003;66382;52.252;8.780;2023-02-11T02:30:02;59.75;49.00;30.25
77320;PMS7003;66382;52.252;8.780;2023-02-11T02:32:58;58.25;49.50;31.50
77320;PMS7003;66382;52.252;8.780;2023-02-11T02:35:39;67.25;54.75;34.00
77320;PMS7003;66382;52.252;8.780;2023-02-11T02:38:12;68.00;53.25;34.25
77320;PMS7003;66382;52.252;8.780;2023-02-11T02:40:44;63.50;53.25;33.00
77320;PMS7003;66382;52.252;8.780;2023-02-11T02:43:12;64.50;52.50;32.25
77320;PMS7003;66382;52.252;8.780;2023-02-11T02:45:40;63.00;52.75;32.50
77320;PMS7003;66382;52.252;8.780;2023-02-11T02:48:20;63.00;52.50;33.00
77320;PMS7003;66382;52.252;8.780;2023-02-11T02:50:48;67.75;55.00;34.00
77320;PMS7003;66382;52.252;8.780;2023-02-11T02:53:23;67.50;53.25;33.50
77320;PMS7003;66382;52.252;8.780;2023-02-11T02:55:57;60.00;51.00;30.75
77320;PMS7003;66382;52.252;8.780;2023-02-11T02:58:43;67.00;53.00;31.00
77320;PMS7003;66382;52.252;8.780;2023-02-11T03:01:25;68.50;55.50;32.25
77320;PMS7003;66382;52.252;8.780;2023-02-11T03:04:00;66.50;54.50;33.50
77320;PMS7003;66382;52.252;8.780;2023-02-11T03:06:36;64.00;53.00;34.00
77320;PMS7003;66382;52.252;8.780;2023-02-11T03:09:13;68.25;55.75;32.25
77320;PMS7003;66382;52.252;8.780;2023-02-11T03:11:43;67.50;55.50;34.50
77320;PMS7003;66382;52.252;8.780;2023-02-11T03:14:10;65.00;53.25;33.00
77320;PMS7003;66382;52.252;8.780;2023-02-11T03:16:39;68.25;55.25;32.00
77320;PMS7003;66382;52.252;8.780;2023-02-11T03:19:09;64.25;53.00;33.00
77320;PMS7003;66382;52.252;8.780;2023-02-11T03:21:39;70.25;55.25;34.00
77320;PMS7003;66382;52.252;8.780;2023-02-11T03:24:08;73.50;59.00;35.00
77320;PMS7003;66382;52.252;8.780;2023-02-11T03:26:39;64.25;53.25;33.00
77320;PMS7003;66382;52.252;8.780;2023-02-11T03:29:09;64.25;53.25;33.00
77320;PMS7003;66382;52.252;8.780;2023-02-11T03:31:43;67.50;54.25;32.75
77320;PMS7003;66382;52.252;8.780;2023-02-11T03:34:18;67.75;54.50;31.00
77320;PMS7003;66382;52.252;8.780;2023-02-11T03:36:51;67.50;54.75;34.75
77320;PMS7003;66382;52.252;8.780;2023-02-11T03:39:21;66.75;53.50;34.00
77320;PMS7003;66382;52.252;8.780;2023-02-11T03:41:51;63.50;52.25;30.50
77320;PMS7003;66382;52.252;8.780;2023-02-11T03:44:20;62.00;52.00;31.25
77320;PMS7003;66382;52.252;8.780;2023-02-11T03:46:51;64.25;52.50;32.00
77320;PMS7003;66382;52.252;8.780;2023-02-11T03:49:20;65.25;53.75;33.25
77320;PMS7003;66382;52.252;8.780;2023-02-11T03:51:51;65.50;53.00;33.00
77320;PMS7003;66382;52.252;8.780;2023-02-11T03:54:22;62.00;51.75;32.75
77320;PMS7003;66382;52.252;8.780;2023-02-11T03:56:52;65.25;54.50;34.00
77320;PMS7003;66382;52.252;8.780;2023-02-11T03:59:22;62.25;51.25;33.00
77320;PMS7003;66382;52.252;8.780;2023-02-11T04:01:47;63.25;53.00;33.00
77320;PMS7003;66382;52.252;8.780;2023-02-11T04:04:13;65.50;53.50;34.00
77320;PMS7003;66382;52.252;8.780;2023-02-11T04:06:40;62.50;52.00;33.00
77320;PMS7003;66382;52.252;8.780;2023-02-11T04:09:06;63.75;53.50;34.25
77320;PMS7003;66382;52.252;8.780;2023-02-11T04:11:32;65.75;54.50;35.00
77320;PMS7003;66382;52.252;8.780;2023-02-11T04:13:58;59.25;49.50;32.00
77320;PMS7003;66382;52.252;8.780;2023-02-11T04:16:24;59.50;50.00;31.25
77320;PMS7003;66382;52.252;8.780;2023-02-11T04:18:49;63.75;53.00;33.25
77320;PMS7003;66382;52.252;8.780;2023-02-11T04:21:15;66.50;54.25;32.75
77320;PMS7003;66382;52.252;8.780;2023-02-11T04:23:42;63.50;52.25;32.25
77320;PMS7003;66382;52.252;8.780;2023-02-11T04:26:08;62.75;52.50;32.75
77320;PMS7003;66382;52.252;8.780;2023-02-11T04:28:33;60.50;50.00;29.50
77320;PMS7003;66382;52.252;8.780;2023-02-11T04:30:59;58.50;50.00;32.00
77320;PMS7003;66382;52.252;8.780;2023-02-11T04:33:25;70.50;55.25;33.50
77320;PMS7003;66382;52.252;8.780;2023-02-11T04:35:51;61.75;51.00;32.25
77320;PMS7003;66382;52.252;8.780;2023-02-11T04:38:16;66.00;53.50;35.00
77320;PMS7003;66382;52.252;8.780;2023-02-11T04:40:43;63.25;51.25;33.00
77320;PMS7003;66382;52.252;8.780;2023-02-11T04:43:09;62.00;51.50;32.50
77320;PMS7003;66382;52.252;8.780;2023-02-11T04:45:35;62.75;52.00;30.25
77320;PMS7003;66382;52.252;8.780;2023-02-11T04:48:01;62.25;52.00;33.00
77320;PMS7003;66382;52.252;8.780;2023-02-11T04:50:26;64.50;54.00;34.00
77320;PMS7003;66382;52.252;8.780;2023-02-11T04:52:52;62.75;52.00;33.00
77320;PMS7003;66382;52.252;8.780;2023-02-11T04:55:18;59.50;50.00;31.25
77320;PMS7003;66382;52.252;8.780;2023-02-11T04:57:45;59.00;49.50;30.25
77320;PMS7003;66382;52.252;8.780;2023-02-11T05:00:11;59.50;49.75;32.00
77320;PMS7003;66382;52.252;8.780;2023-02-11T05:02:37;59.00;50.00;33.00
77320;PMS7003;66382;52.252;8.780;2023-02-11T05:05:03;60.00;50.50;31.25
77320;PMS7003;66382;52.252;8.780;2023-02-11T05:07:30;64.50;53.50;32.00
77320;PMS7003;66382;52.252;8.780;2023-02-11T05:09:55;61.75;51.75;31.50
77320;PMS7003;66382;52.252;8.780;2023-02-11T05:12:21;60.75;50.75;33.00
77320;PMS7003;66382;52.252;8.780;2023-02-11T05:14:48;62.75;52.00;31.00
77320;PMS7003;66382;52.252;8.780;2023-02-11T05:17:14;59.25;50.00;31.25
77320;PMS7003;66382;52.252;8.780;2023-02-11T05:19:40;61.00;50.75;31.50
77320;PMS7003;66382;52.252;8.780;2023-02-11T05:22:06;62.75;52.00;33.00
77320;PMS7003;66382;52.252;8.780;2023-02-11T05:24:31;62.00;52.25;33.00
77320;PMS7003;66382;52.252;8.780;2023-02-11T05:26:57;58.50;50.00;31.50
77320;PMS7003;66382;52.252;8.780;2023-02-11T05:29:23;62.25;50.75;32.00
77320;PMS7003;66382;52.252;8.780;2023-02-11T05:31:50;62.25;52.25;33.00
77320;PMS7003;66382;52.252;8.780;2023-02-11T05:34:16;61.50;52.00;31.50
77320;PMS7003;66382;52.252;8.780;2023-02-11T05:36:42;56.75;48.50;32.00
77320;PMS7003;66382;52.252;8.780;2023-02-11T05:39:08;63.00;50.50;31.25
77320;PMS7003;66382;52.252;8.780;2023-02-11T05:41:33;59.50;50.00;31.50
77320;PMS7003;66382;52.252;8.780;2023-02-11T05:43:59;56.75;48.75;32.00
77320;PMS7003;66382;52.252;8.780;2023-02-11T05:46:25;60.25;50.50;31.25
77320;PMS7003;66382;52.252;8.780;2023-02-11T05:48:52;53.50;46.25;31.50
77320;PMS7003;66382;52.252;8.780;2023-02-11T05:51:18;58.50;49.25;30.75
77320;PMS7003;66382;52.252;8.780;2023-02-11T05:53:43;60.75;51.00;30.25
77320;PMS7003;66382;52.252;8.780;2023-02-11T05:56:09;56.25;47.50;31.25
77320;PMS7003;66382;52.252;8.780;2023-02-11T05:58:35;58.00;49.00;30.75
77320;PMS7003;66382;52.252;8.780;2023-02-11T06:01:00;59.00;50.00;31.25
77320;PMS7003;66382;52.252;8.780;2023-02-11T06:03:26;55.25;47.25;30.50
77320;PMS7003;66382;52.252;8.780;2023-02-11T06:05:53;57.50;49.00;31.00
77320;PMS7003;66382;52.252;8.780;2023-02-11T06:08:19;59.50;50.00;31.25
77320;PMS7003;66382;52.252;8.780;2023-02-11T06:10:45;48.25;42.75;29.00
77320;PMS7003;66382;52.252;8.780;2023-02-11T06:13:10;47.25;41.75;30.25
77320;PMS7003;66382;52.252;8.780;2023-02-11T06:15:36;54.75;45.50;30.00
77320;PMS7003;66382;52.252;8.780;2023-02-11T06:18:02;52.25;45.00;31.00
77320;PMS7003;66382;52.252;8.780;2023-02-11T06:20:28;56.00;47.00;30.75
77320;PMS7003;66382;52.252;8.780;2023-02-11T06:22:55;41.75;38.25;24.50
77320;PMS7003;66382;52.252;8.780;2023-02-11T06:25:21;56.25;47.50;29.25
77320;PMS7003;66382;52.252;8.780;2023-02-11T06:27:46;57.50;47.50;30.00
77320;PMS7003;66382;52.252;8.780;2023-02-11T06:30:12;51.00;44.25;27.75
77320;PMS7003;66382;52.252;8.780;2023-02-11T06:32:38;51.00;43.75;28.50
77320;PMS7003;66382;52.252;8.780;2023-02-11T06:35:04;55.25;47.25;31.25
77320;PMS7003;66382;52.252;8.780;2023-02-11T06:37:30;55.25;47.25;29.50
77320;PMS7003;66382;52.252;8.780;2023-02-11T06:39:59;54.50;46.75;29.00
77320;PMS7003;66382;52.252;8.780;2023-02-11T06:42:25;53.75;45.50;29.00
77320;PMS7003;66382;52.252;8.780;2023-02-11T06:44:51;55.75;46.00;29.75
77320;PMS7003;66382;52.252;8.780;2023-02-11T06:47:16;52.75;45.25;30.50
77320;PMS7003;66382;52.252;8.780;2023-02-11T06:49:42;57.00;47.50;30.00
77320;PMS7003;66382;52.252;8.780;2023-02-11T06:52:08;54.50;45.50;29.00
77320;PMS7003;66382;52.252;8.780;2023-02-11T06:54:33;55.50;47.50;29.75
77320;PMS7003;66382;52.252;8.780;2023-02-11T06:57:00;53.75;46.00;30.00
77320;PMS7003;66382;52.252;8.780;2023-02-11T06:59:26;51.50;44.50;27.25
77320;PMS7003;66382;52.252;8.780;2023-02-11T07:01:52;49.50;42.00;25.00
77320;PMS7003;66382;52.252;8.780;2023-02-11T07:04:18;53.25;44.75;28.75
77320;PMS7003;66382;52.252;8.780;2023-02-11T07:06:43;55.75;47.50;30.00
77320;PMS7003;66382;52.252;8.780;2023-02-11T07:09:09;50.75;43.75;29.00
77320;PMS7003;66382;52.252;8.780;2023-02-11T07:11:35;56.00;47.00;29.00
77320;PMS7003;66382;52.252;8.780;2023-02-11T07:14:03;56.25;48.25;31.25
77320;PMS7003;66382;52.252;8.780;2023-02-11T07:16:30;55.00;46.50;30.00
77320;PMS7003;66382;52.252;8.780;2023-02-11T07:18:56;55.25;45.75;30.00
77320;PMS7003;66382;52.252;8.780;2023-02-11T07:21:22;54.25;46.25;29.75
77320;PMS7003;66382;52.252;8.780;2023-02-11T07:23:48;60.75;51.50;31.25
77320;PMS7003;66382;52.252;8.780;2023-02-11T07:26:15;55.25;47.00;29.75
77320;PMS7003;66382;52.252;8.780;2023-02-11T07:28:42;54.25;46.75;30.50
77320;PMS7003;66382;52.252;8.780;2023-02-11T07:31:11;54.00;45.00;29.25
77320;PMS7003;66382;52.252;8.780;2023-02-11T07:33:38;55.50;47.50;30.25
77320;PMS7003;66382;52.252;8.780;2023-02-11T07:36:06;54.75;46.00;27.00
77320;PMS7003;66382;52.252;8.780;2023-02-11T07:38:34;55.50;47.25;30.50
77320;PMS7003;66382;52.252;8.780;2023-02-11T07:41:01;57.75;48.75;30.00
77320;PMS7003;66382;52.252;8.780;2023-02-11T07:43:28;56.75;48.75;30.00
77320;PMS7003;66382;52.252;8.780;2023-02-11T07:45:54;59.25;49.75;31.00
77320;PMS7003;66382;52.252;8.780;2023-02-11T07:48:21;68.00;55.00;35.00
77320;PMS7003;66382;52.252;8.780;2023-02-11T07:50:47;58.00;48.25;31.25
77320;PMS7003;66382;52.252;8.780;2023-02-11T07:53:13;55.50;47.50;30.00
77320;PMS7003;66382;52.252;8.780;2023-02-11T07:55:39;58.50;47.75;30.50
77320;PMS7003;66382;52.252;8.780;2023-02-11T07:58:06;56.75;48.00;29.75
77320;PMS7003;66382;52.252;8.780;2023-02-11T08:00:32;59.00;49.00;31.25
77320;PMS7003;66382;52.252;8.780;2023-02-11T08:02:57;56.00;47.75;30.75
77320;PMS7003;66382;52.252;8.780;2023-02-11T08:05:25;60.00;50.50;32.00
77320;PMS7003;66382;52.252;8.780;2023-02-11T08:07:51;56.00;47.75;30.75
77320;PMS7003;66382;52.252;8.780;2023-02-11T08:10:17;57.50;48.00;31.25
77320;PMS7003;66382;52.252;8.780;2023-02-11T08:12:46;56.75;48.50;32.50
77320;PMS7003;66382;52.252;8.780;2023-02-11T08:15:12;59.25;50.25;32.25
77320;PMS7003;66382;52.252;8.780;2023-02-11T08:17:38;27.00;26.75;8.75
77320;PMS7003;66382;52.252;8.780;2023-02-11T08:20:04;53.50;45.25;29.00
77320;PMS7003;66382;52.252;8.780;2023-02-11T08:22:32;61.00;50.50;31.25
77320;PMS7003;66382;52.252;8.780;2023-02-11T08:24:58;56.00;47.50;31.25
77320;PMS7003;66382;52.252;8.780;2023-02-11T08:27:24;53.75;45.25;27.75
77320;PMS7003;66382;52.252;8.780;2023-02-11T08:29:50;59.75;49.25;31.25
77320;PMS7003;66382;52.252;8.780;2023-02-11T08:32:16;60.50;50.50;30.75
77320;PMS7003;66382;52.252;8.780;2023-02-11T08:34:41;60.25;50.50;31.00
77320;PMS7003;66382;52.252;8.780;2023-02-11T08:37:07;58.00;49.75;31.00
77320;PMS7003;66382;52.252;8.780;2023-02-11T08:39:34;58.25;49.00;30.50
77320;PMS7003;66382;52.252;8.780;2023-02-11T08:42:00;57.00;48.25;31.25
77320;PMS7003;66382;52.252;8.780;2023-02-11T08:44:26;56.75;48.00;30.50
77320;PMS7003;66382;52.252;8.780;2023-02-11T08:46:52;58.25;48.00;29.50
77320;PMS7003;66382;52.252;8.780;2023-02-11T08:49:18;57.50;48.75;29.00
77320;PMS7003;66382;52.252;8.780;2023-02-11T08:51:44;59.50;49.50;31.25
77320;PMS7003;66382;52.252;8.780;2023-02-11T08:54:11;60.00;50.00;31.00
77320;PMS7003;66382;52.252;8.780;2023-02-11T08:56:39;59.50;49.50;31.00
77320;PMS7003;66382;52.252;8.780;2023-02-11T08:59:05;56.75;47.75;30.25
77320;PMS7003;66382;52.252;8.780;2023-02-11T09:01:31;60.50;51.00;31.25
77320;PMS7003;66382;52.252;8.780;2023-02-11T09:03:57;54.75;44.75;28.00
77320;PMS7003;66382;52.252;8.780;2023-02-11T09:06:24;59.50;49.50;31.25
77320;PMS7003;66382;52.252;8.780;2023-02-11T09:08:51;55.25;47.00;29.50
77320;PMS7003;66382;52.252;8.780;2023-02-11T09:11:20;60.75;49.50;29.75
77320;PMS7003;66382;52.252;8.780;2023-02-11T09:13:51;58.50;48.50;31.00
77320;PMS7003;66382;52.252;8.780;2023-02-11T09:16:18;53.50;46.00;30.25
77320;PMS7003;66382;52.252;8.780;2023-02-11T09:18:46;58.75;49.25;30.00
77320;PMS7003;66382;52.252;8.780;2023-02-11T09:21:12;58.50;48.50;30.50
77320;PMS7003;66382;52.252;8.780;2023-02-11T09:23:39;53.00;45.25;28.50
77320;PMS7003;66382;52.252;8.780;2023-02-11T09:26:05;54.75;46.00;27.00
77320;PMS7003;66382;52.252;8.780;2023-02-11T09:28:31;56.25;47.00;29.75
77320;PMS7003;66382;52.252;8.780;2023-02-11T09:30:58;55.75;46.50;28.50
77320;PMS7003;66382;52.252;8.780;2023-02-11T09:33:28;52.00;44.75;28.50
77320;PMS7003;66382;52.252;8.780;2023-02-11T09:35:54;57.75;49.25;30.25
77320;PMS7003;66382;52.252;8.780;2023-02-11T09:38:20;54.75;46.25;26.50
77320;PMS7003;66382;52.252;8.780;2023-02-11T09:40:45;57.00;49.00;31.00
77320;PMS7003;66382;52.252;8.780;2023-02-11T09:43:12;58.25;48.50;31.00
77320;PMS7003;66382;52.252;8.780;2023-02-11T09:45:43;53.75;45.75;26.75
77320;PMS7003;66382;52.252;8.780;2023-02-11T09:48:12;60.00;49.50;30.75
77320;PMS7003;66382;52.252;8.780;2023-02-11T09:50:41;57.25;47.50;30.00
77320;PMS7003;66382;52.252;8.780;2023-02-11T09:53:09;56.50;48.75;32.00
77320;PMS7003;66382;52.252;8.780;2023-02-11T09:55:39;56.00;47.50;29.75
77320;PMS7003;66382;52.252;8.780;2023-02-11T09:58:10;55.50;46.25;30.25
77320;PMS7003;66382;52.252;8.780;2023-02-11T10:00:39;55.00;46.00;29.75
77320;PMS7003;66382;52.252;8.780;2023-02-11T10:06:15;57.00;47.75;30.00
77320;PMS7003;66382;52.252;8.780;2023-02-11T10:08:55;55.25;46.50;29.75
77320;PMS7003;66382;52.252;8.780;2023-02-11T10:11:30;57.75;49.00;30.00
77320;PMS7003;66382;52.252;8.780;2023-02-11T10:14:06;54.00;45.25;29.00
77320;PMS7003;66382;52.252;8.780;2023-02-11T10:16:46;55.00;47.00;30.50
77320;PMS7003;66382;52.252;8.780;2023-02-11T10:19:28;63.25;50.25;30.00
77320;PMS7003;66382;52.252;8.780;2023-02-11T10:22:05;65.00;53.25;32.50
77320;PMS7003;66382;52.252;8.780;2023-02-11T10:24:37;56.00;47.50;31.00
77320;PMS7003;66382;52.252;8.780;2023-02-11T10:27:07;62.00;51.00;31.25
77320;PMS7003;66382;52.252;8.780;2023-02-11T10:29:42;62.00;49.75;31.00
77320;PMS7003;66382;52.252;8.780;2023-02-11T10:32:14;58.25;49.25;31.25
77320;PMS7003;66382;52.252;8.780;2023-02-11T10:34:55;60.00;50.50;29.00
77320;PMS7003;66382;52.252;8.780;2023-02-11T10:37:26;60.75;50.00;31.00
77320;PMS7003;66382;52.252;8.780;2023-02-11T10:39:51;59.00;49.00;32.50
77320;PMS7003;66382;52.252;8.780;2023-02-11T10:42:17;62.50;52.25;30.75
77320;PMS7003;66382;52.252;8.780;2023-02-11T10:44:47;58.50;49.50;31.00
77320;PMS7003;66382;52.252;8.780;2023-02-11T10:47:23;52.75;45.50;30.00
77320;PMS7003;66382;52.252;8.780;2023-02-11T10:49:51;56.25;48.00;29.25
77320;PMS7003;66382;52.252;8.780;2023-02-11T10:52:20;53.25;45.25;30.00
77320;PMS7003;66382;52.252;8.780;2023-02-11T10:54:56;56.00;47.25;31.00
77320;PMS7003;66382;52.252;8.780;2023-02-11T10:57:25;58.50;48.75;31.00
77320;PMS7003;66382;52.252;8.780;2023-02-11T10:59:56;46.75;40.75;22.00
77320;PMS7003;66382;52.252;8.780;2023-02-11T11:02:25;50.25;43.25;26.25
77320;PMS7003;66382;52.252;8.780;2023-02-11T11:04:55;58.00;48.25;31.00
77320;PMS7003;66382;52.252;8.780;2023-02-11T11:07:24;52.00;43.25;28.00
77320;PMS7003;66382;52.252;8.780;2023-02-11T11:09:52;55.00;46.00;29.25
77320;PMS7003;66382;52.252;8.780;2023-02-11T11:12:23;56.75;48.25;31.00
77320;PMS7003;66382;52.252;8.780;2023-02-11T11:15:01;52.50;44.50;29.75
77320;PMS7003;66382;52.252;8.780;2023-02-11T11:17:38;54.00;46.00;28.50
77320;PMS7003;66382;52.252;8.780;2023-02-11T11:22:51;51.50;44.25;27.50
77320;PMS7003;66382;52.252;8.780;2023-02-11T11:25:31;54.50;47.00;29.00
77320;PMS7003;66382;52.252;8.780;2023-02-11T11:28:08;57.75;46.50;29.00
77320;PMS7003;66382;52.252;8.780;2023-02-11T11:30:44;58.50;48.25;29.00
77320;PMS7003;66382;52.252;8.780;2023-02-11T11:33:14;51.50;43.00;28.75
77320;PMS7003;66382;52.252;8.780;2023-02-11T11:35:51;50.00;41.75;25.00
77320;PMS7003;66382;52.252;8.780;2023-02-11T11:38:23;52.25;44.50;26.00
77320;PMS7003;66382;52.252;8.780;2023-02-11T11:43:38;51.00;43.75;27.50
77320;PMS7003;66382;52.252;8.780;2023-02-11T11:46:03;49.75;42.75;28.00
77320;PMS7003;66382;52.252;8.780;2023-02-11T11:48:30;51.75;44.25;26.50
77320;PMS7003;66382;52.252;8.780;2023-02-11T11:51:01;52.25;44.00;28.00
77320;PMS7003;66382;52.252;8.780;2023-02-11T11:53:33;42.75;38.75;26.00
77320;PMS7003;66382;52.252;8.780;2023-02-11T11:56:08;49.00;41.75;25.75
77320;PMS7003;66382;52.252;8.780;2023-02-11T11:58:37;47.50;41.25;27.50
77320;PMS7003;66382;52.252;8.780;2023-02-11T12:01:06;44.25;39.25;25.50
77320;PMS7003;66382;52.252;8.780;2023-02-11T12:06:52;38.75;35.25;24.00
77320;PMS7003;66382;52.252;8.780;2023-02-11T12:09:29;49.00;42.50;26.25
77320;PMS7003;66382;52.252;8.780;2023-02-11T12:12:05;51.50;44.00;27.50
77320;PMS7003;66382;52.252;8.780;2023-02-11T12:14:42;51.50;44.25;29.00
77320;PMS7003;66382;52.252;8.780;2023-02-11T12:17:21;46.50;40.50;25.00
77320;PMS7003;66382;52.252;8.780;2023-02-11T12:20:03;47.25;40.00;25.25
77320;PMS7003;66382;52.252;8.780;2023-02-11T12:22:46;45.50;40.25;25.00
77320;PMS7003;66382;52.252;8.780;2023-02-11T12:25:26;48.75;42.50;26.00
77320;PMS7003;66382;52.252;8.780;2023-02-11T12:30:46;51.50;44.75;27.75
77320;PMS7003;66382;52.252;8.780;2023-02-11T12:33:20;48.50;42.00;28.25
77320;PMS7003;66382;52.252;8.780;2023-02-11T12:36:03;50.75;43.75;26.50
77320;PMS7003;66382;52.252;8.780;2023-02-11T12:38:39;53.00;44.50;28.00
77320;PMS7003;66382;52.252;8.780;2023-02-11T12:41:23;49.50;42.50;25.00
77320;PMS7003;66382;52.252;8.780;2023-02-11T12:43:58;52.25;44.25;29.50
77320;PMS7003;66382;52.252;8.780;2023-02-11T12:46:35;50.75;43.50;26.75
77320;PMS7003;66382;52.252;8.780;2023-02-11T12:49:10;49.50;43.00;27.75
77320;PMS7003;66382;52.252;8.780;2023-02-11T12:52:01;57.25;45.75;26.75
77320;PMS7003;66382;52.252;8.780;2023-02-11T12:54:47;50.75;43.25;28.50
77320;PMS7003;66382;52.252;8.780;2023-02-11T12:57:21;52.00;44.25;27.25
77320;PMS7003;66382;52.252;8.780;2023-02-11T12:59:51;49.75;43.25;28.75
77320;PMS7003;66382;52.252;8.780;2023-02-11T13:02:25;54.00;46.00;26.25
77320;PMS7003;66382;52.252;8.780;2023-02-11T13:04:59;51.00;43.00;26.75
77320;PMS7003;66382;52.252;8.780;2023-02-11T13:07:30;52.75;44.50;28.50
77320;PMS7003;66382;52.252;8.780;2023-02-11T13:10:03;53.00;44.75;26.25
77320;PMS7003;66382;52.252;8.780;2023-02-11T13:12:34;49.25;43.00;27.75
77320;PMS7003;66382;52.252;8.780;2023-02-11T13:15:02;51.75;42.75;26.00
77320;PMS7003;66382;52.252;8.780;2023-02-11T13:17:33;53.25;45.00;28.00
77320;PMS7003;66382;52.252;8.780;2023-02-11T13:20:06;51.50;44.75;28.25
77320;PMS7003;66382;52.252;8.780;2023-02-11T13:22:46;48.00;41.25;27.25
77320;PMS7003;66382;52.252;8.780;2023-02-11T13:25:19;54.25;45.00;28.00
77320;PMS7003;66382;52.252;8.780;2023-02-11T13:27:56;54.75;45.50;27.25
77320;PMS7003;66382;52.252;8.780;2023-02-11T13:30:27;54.25;45.50;29.25
77320;PMS7003;66382;52.252;8.780;2023-02-11T13:33:05;52.75;44.50;29.00
77320;PMS7003;66382;52.252;8.780;2023-02-11T13:35:43;58.00;48.50;30.25
77320;PMS7003;66382;52.252;8.780;2023-02-11T13:38:16;56.75;48.00;29.75
77320;PMS7003;66382;52.252;8.780;2023-02-11T13:40:44;56.00;46.25;29.25
77320;PMS7003;66382;52.252;8.780;2023-02-11T13:43:25;57.00;48.00;29.75
77320;PMS7003;66382;52.252;8.780;2023-02-11T13:45:53;51.75;44.25;28.00
77320;PMS7003;66382;52.252;8.780;2023-02-11T13:48:23;52.00;44.50;28.75
77320;PMS7003;66382;52.252;8.780;2023-02-11T13:50:51;56.50;46.25;28.00
77320;PMS7003;66382;52.252;8.780;2023-02-11T13:53:19;64.25;53.00;31.75
77320;PMS7003;66382;52.252;8.780;2023-02-11T13:55:47;50.25;43.25;26.00
77320;PMS7003;66382;52.252;8.780;2023-02-11T13:58:16;51.00;43.00;25.25
77320;PMS7003;66382;52.252;8.780;2023-02-11T14:00:49;57.75;48.00;30.00
77320;PMS7003;66382;52.252;8.780;2023-02-11T14:03:26;54.50;46.25;29.75
77320;PMS7003;66382;52.252;8.780;2023-02-11T14:08:51;53.75;46.00;28.75
77320;PMS7003;66382;52.252;8.780;2023-02-11T14:11:45;56.00;45.75;27.00
77320;PMS7003;66382;52.252;8.780;2023-02-11T14:14:15;49.75;42.50;28.00
77320;PMS7003;66382;52.252;8.780;2023-02-11T14:19:46;53.00;45.75;26.75
77320;PMS7003;66382;52.252;8.780;2023-02-11T14:22:13;49.75;42.50;28.00
77320;PMS7003;66382;52.252;8.780;2023-02-11T14:24:50;55.75;45.75;28.75